Metar z pełnej godziny Komunikat METAR ze strony awiacja.imgw.pl Metar G00 EPKK METAR EPKK 190200Z 23004KT 9999 SCT051 17/14 Q1019 =